createdAt,value
2017-09-15T00:01:51.592Z,15.03
2017-09-15T00:04:20.227Z,14.93
2017-09-15T00:06:49.799Z,14.94
2017-09-15T00:09:18.172Z,15.03
2017-09-15T00:11:47.564Z,15.05
2017-09-15T00:14:17.378Z,15.17
2017-09-15T00:16:47.503Z,14.86
2017-09-15T00:19:16.931Z,14.73
2017-09-15T00:21:45.354Z,14.91
2017-09-15T00:24:13.741Z,15.18
2017-09-15T00:26:43.161Z,15.08
2017-09-15T00:29:11.555Z,15.02
2017-09-15T00:31:39.919Z,14.90
2017-09-15T00:34:08.627Z,15.07
2017-09-15T00:36:37.015Z,15.00
2017-09-15T00:39:06.030Z,15.08
2017-09-15T00:41:36.861Z,14.93
2017-09-15T00:44:05.238Z,14.82
2017-09-15T00:46:33.611Z,14.89
2017-09-15T00:49:03.154Z,15.02
2017-09-15T00:51:31.534Z,14.85
2017-09-15T00:54:00.641Z,14.90
2017-09-15T00:56:30.243Z,14.90
2017-09-15T00:58:59.406Z,14.89
2017-09-15T01:01:27.785Z,14.99
2017-09-15T01:03:57.726Z,14.77
2017-09-15T01:06:28.751Z,14.65
2017-09-15T01:08:57.130Z,14.81
2017-09-15T01:11:27.336Z,14.62
2017-09-15T01:13:55.715Z,14.65
2017-09-15T01:16:24.304Z,14.69
2017-09-15T01:18:53.144Z,14.62
2017-09-15T01:21:23.064Z,14.58
2017-09-15T01:23:51.768Z,14.72
2017-09-15T01:26:20.651Z,14.83
2017-09-15T01:28:50.502Z,14.80
2017-09-15T01:31:18.870Z,14.78
2017-09-15T01:33:48.464Z,14.76
2017-09-15T01:36:17.452Z,14.76
2017-09-15T01:38:46.259Z,14.64
2017-09-15T01:41:15.672Z,14.61
2017-09-15T01:43:44.021Z,14.75
2017-09-15T01:46:12.377Z,14.69
2017-09-15T01:48:41.936Z,14.70
2017-09-15T01:51:10.284Z,14.54
2017-09-15T01:53:38.637Z,14.45
2017-09-15T01:56:08.196Z,14.52
2017-09-15T01:58:36.583Z,14.48
2017-09-15T02:01:05.204Z,14.41
2017-09-15T02:03:35.834Z,14.39
2017-09-15T02:06:04.970Z,14.40
2017-09-15T02:08:33.314Z,14.32
2017-09-15T02:11:02.943Z,14.33
2017-09-15T02:13:32.178Z,14.30
2017-09-15T02:16:00.517Z,14.26
2017-09-15T02:18:29.139Z,14.32
2017-09-15T02:20:57.506Z,14.22
2017-09-15T02:23:25.857Z,14.04
2017-09-15T02:25:54.482Z,14.09
2017-09-15T02:28:23.885Z,14.19
2017-09-15T02:30:52.917Z,14.09
2017-09-15T02:33:22.626Z,14.05
2017-09-15T02:35:51.891Z,14.00
2017-09-15T02:38:20.279Z,14.03
2017-09-15T02:40:49.721Z,13.87
2017-09-15T02:43:22.864Z,13.90
2017-09-15T02:45:51.504Z,14.02
2017-09-15T02:48:22.206Z,13.99
2017-09-15T02:50:50.554Z,14.13
2017-09-15T02:53:20.381Z,14.08
2017-09-15T02:55:48.768Z,13.97
2017-09-15T02:58:17.147Z,13.80
2017-09-15T03:00:45.865Z,13.91
2017-09-15T03:03:14.986Z,13.99
2017-09-15T03:05:44.082Z,14.14
2017-09-15T03:08:12.834Z,13.89
2017-09-15T03:10:41.204Z,13.95
2017-09-15T03:13:09.616Z,13.89
2017-09-15T03:15:39.137Z,13.80
2017-09-15T03:18:07.682Z,13.96
2017-09-15T03:20:36.037Z,13.88
2017-09-15T03:23:05.748Z,13.96
2017-09-15T03:25:34.089Z,13.85
2017-09-15T03:28:02.538Z,13.98
2017-09-15T03:30:31.386Z,13.76
2017-09-15T03:32:59.752Z,14.06
2017-09-15T03:35:28.114Z,14.03
2017-09-15T03:37:56.992Z,13.87
2017-09-15T03:40:25.344Z,13.96
2017-09-15T03:42:54.705Z,13.73
2017-09-15T03:45:23.370Z,13.75
2017-09-15T03:47:52.378Z,13.84
2017-09-15T03:50:20.733Z,13.72
2017-09-15T03:52:49.752Z,13.87
2017-09-15T03:55:18.133Z,13.84
2017-09-15T03:57:46.477Z,13.37
2017-09-15T04:00:15.170Z,13.39
2017-09-15T04:02:43.542Z,13.68
2017-09-15T04:05:12.675Z,13.78
2017-09-15T04:07:41.381Z,13.66
2017-09-15T04:10:09.720Z,13.68
2017-09-15T04:12:38.086Z,13.36
2017-09-15T04:15:07.519Z,13.43
2017-09-15T04:17:35.907Z,13.45
2017-09-15T04:20:04.847Z,13.19
2017-09-15T04:22:34.425Z,13.28
2017-09-15T04:25:02.786Z,13.39
2017-09-15T04:27:31.165Z,13.48
2017-09-15T04:30:01.019Z,13.36
2017-09-15T04:32:29.394Z,13.35
2017-09-15T04:34:58.534Z,13.39
2017-09-15T04:37:27.337Z,13.17
2017-09-15T04:39:55.693Z,13.18
2017-09-15T04:42:25.407Z,13.13
2017-09-15T04:44:54.464Z,13.05
2017-09-15T04:47:23.457Z,13.09
2017-09-15T04:49:53.173Z,13.27
2017-09-15T04:52:22.586Z,13.18
2017-09-15T04:54:51.153Z,13.29
2017-09-15T04:57:22.832Z,13.13
2017-09-15T04:59:51.899Z,13.16
2017-09-15T05:02:21.498Z,13.28
2017-09-15T05:04:50.674Z,13.32
2017-09-15T05:07:19.759Z,13.24
2017-09-15T05:09:48.183Z,13.28
2017-09-15T05:12:17.178Z,13.48
2017-09-15T05:14:46.682Z,13.22
2017-09-15T05:17:15.063Z,13.24
2017-09-15T05:19:44.978Z,13.33
2017-09-15T05:22:13.688Z,13.43
2017-09-15T05:24:42.139Z,13.17
2017-09-15T05:27:10.500Z,13.16
2017-09-15T05:29:40.289Z,13.73
2017-09-15T05:32:08.671Z,13.82
2017-09-15T05:34:37.807Z,13.96
2017-09-15T05:37:07.518Z,14.23
2017-09-15T05:39:35.914Z,13.89
2017-09-15T05:42:04.483Z,14.13
2017-09-15T05:44:33.121Z,14.32
2017-09-15T05:47:02.393Z,14.66
2017-09-15T05:49:30.744Z,14.89
2017-09-15T05:51:59.840Z,15.24
2017-09-15T05:54:28.215Z,15.39
2017-09-15T05:56:57.959Z,15.38
2017-09-15T05:59:26.725Z,15.41
2017-09-15T06:01:55.095Z,15.98
2017-09-15T06:04:23.469Z,15.85
2017-09-15T06:06:52.103Z,15.23
2017-09-15T06:09:20.610Z,15.10
2017-09-15T06:11:51.065Z,14.97
2017-09-15T06:14:20.793Z,14.94
2017-09-15T06:16:49.434Z,15.14
2017-09-15T06:19:17.821Z,15.22
2017-09-15T06:21:46.780Z,14.94
2017-09-15T06:24:16.821Z,14.88
2017-09-15T06:26:45.298Z,14.97
2017-09-15T06:29:14.204Z,15.12
2017-09-15T06:31:42.669Z,15.18
2017-09-15T06:34:11.813Z,15.17
2017-09-15T06:36:41.232Z,15.31
2017-09-15T06:39:09.594Z,15.16
2017-09-15T06:41:38.513Z,15.35
2017-09-15T06:44:08.017Z,16.33
2017-09-15T06:46:36.391Z,17.16
2017-09-15T06:49:05.531Z,17.87
2017-09-15T06:51:35.881Z,19.51
2017-09-15T06:54:04.880Z,19.21
2017-09-15T06:56:33.280Z,18.93
2017-09-15T06:59:02.349Z,18.28
2017-09-15T07:01:32.129Z,18.72
2017-09-15T07:04:01.508Z,19.12
2017-09-15T07:06:31.158Z,20.32
2017-09-15T07:09:00.225Z,20.73
2017-09-15T07:11:29.383Z,19.76
2017-09-15T07:13:58.660Z,19.06
2017-09-15T07:16:27.723Z,18.37
2017-09-15T07:18:56.104Z,19.10
2017-09-15T07:21:26.351Z,20.08
2017-09-15T07:23:54.710Z,21.25
2017-09-15T07:26:23.063Z,22.04
2017-09-15T07:28:52.518Z,22.38
2017-09-15T07:31:21.578Z,21.75
2017-09-15T07:33:50.947Z,20.89
2017-09-15T07:36:19.665Z,21.23
2017-09-15T07:38:48.866Z,21.86
2017-09-15T07:41:19.463Z,22.30
2017-09-15T07:43:49.824Z,24.23
2017-09-15T07:46:18.961Z,24.95
2017-09-15T07:48:47.335Z,25.19
2017-09-15T07:51:17.055Z,26.82
2017-09-15T07:53:46.785Z,24.79
2017-09-15T07:56:15.137Z,23.28
2017-09-15T07:58:44.989Z,23.53
2017-09-15T08:01:13.382Z,23.23
2017-09-15T08:03:41.796Z,22.84
2017-09-15T08:06:11.371Z,22.55
2017-09-15T08:08:39.741Z,23.87
2017-09-15T08:11:09.065Z,21.74
2017-09-15T08:13:38.526Z,21.48
2017-09-15T08:16:08.586Z,22.82
2017-09-15T08:18:38.561Z,25.58
2017-09-15T08:21:07.450Z,25.99
2017-09-15T08:23:37.641Z,27.60
2017-09-15T08:26:06.084Z,27.90
2017-09-15T08:28:35.855Z,28.52
2017-09-15T08:31:04.701Z,27.10
2017-09-15T08:33:33.199Z,25.55
2017-09-15T08:36:03.046Z,25.32
2017-09-15T08:38:31.466Z,25.69
2017-09-15T08:41:01.163Z,24.48
2017-09-15T08:43:30.546Z,24.41
2017-09-15T08:45:58.924Z,24.39
2017-09-15T08:48:27.717Z,24.19
2017-09-15T08:50:57.140Z,24.33
2017-09-15T08:53:25.506Z,26.14
2017-09-15T08:55:53.890Z,25.42
2017-09-15T08:58:22.610Z,25.32
2017-09-15T09:00:51.043Z,27.72
2017-09-15T09:03:20.248Z,27.17
2017-09-15T09:05:49.102Z,30.06
2017-09-15T09:08:19.161Z,30.81
2017-09-15T09:10:47.518Z,31.36
2017-09-15T09:13:16.928Z,32.37
2017-09-15T09:15:45.365Z,27.41
2017-09-15T09:18:13.754Z,28.78
2017-09-15T09:20:42.491Z,28.98
2017-09-15T09:23:10.928Z,25.75
2017-09-15T09:25:39.374Z,25.38
2017-09-15T09:28:08.318Z,26.19
2017-09-15T09:30:36.746Z,26.71
2017-09-15T09:33:06.011Z,28.93
2017-09-15T09:35:34.872Z,28.13
2017-09-15T09:38:05.314Z,29.09
2017-09-15T09:40:33.681Z,27.41
2017-09-15T09:43:02.704Z,26.19
2017-09-15T09:45:32.142Z,25.08
2017-09-15T09:48:00.867Z,24.82
2017-09-15T09:50:29.792Z,24.86
2017-09-15T09:52:59.581Z,26.26
2017-09-15T09:55:27.981Z,26.51
2017-09-15T09:57:56.797Z,26.22
2017-09-15T10:00:27.967Z,28.63
2017-09-15T10:02:56.376Z,28.15
2017-09-15T10:05:25.084Z,28.73
2017-09-15T10:07:53.522Z,30.68
2017-09-15T10:10:22.836Z,27.08
2017-09-15T10:12:51.689Z,28.70
2017-09-15T10:15:20.107Z,27.77
2017-09-15T10:17:49.693Z,28.70
2017-09-15T10:20:19.187Z,29.19
2017-09-15T10:22:48.361Z,28.69
2017-09-15T10:25:16.958Z,27.93
2017-09-15T10:27:45.793Z,27.77
2017-09-15T10:30:14.324Z,30.88
2017-09-15T10:32:42.946Z,32.90
2017-09-15T10:35:12.472Z,30.66
2017-09-15T10:37:40.865Z,30.86
2017-09-15T10:40:10.004Z,32.29
2017-09-15T10:42:39.331Z,31.41
2017-09-15T10:45:07.690Z,31.17
2017-09-15T10:47:36.112Z,30.30
2017-09-15T10:50:05.859Z,32.14
2017-09-15T10:52:34.261Z,32.53
2017-09-15T10:55:02.618Z,33.83
2017-09-15T10:57:36.776Z,31.82
2017-09-15T11:00:12.300Z,29.58
2017-09-15T11:02:40.988Z,31.80
2017-09-15T11:05:09.388Z,31.94
2017-09-15T11:07:37.774Z,33.39
2017-09-15T11:10:07.971Z,32.89
2017-09-15T11:12:37.142Z,29.84
2017-09-15T11:15:06.031Z,27.69
2017-09-15T11:17:35.015Z,25.95
2017-09-15T11:20:04.047Z,26.92
2017-09-15T11:22:33.889Z,26.79
2017-09-15T11:25:02.849Z,28.76
2017-09-15T11:27:31.982Z,30.44
2017-09-15T11:30:01.099Z,30.98
2017-09-15T11:32:29.728Z,31.53
2017-09-15T11:34:58.812Z,31.07
2017-09-15T11:37:27.846Z,28.96
2017-09-15T11:39:58.111Z,26.68
2017-09-15T11:42:26.486Z,25.36
2017-09-15T11:44:54.852Z,24.56
2017-09-15T11:47:23.673Z,24.04
2017-09-15T11:49:52.017Z,23.65
2017-09-15T11:52:20.670Z,22.90
2017-09-15T11:54:50.124Z,22.55
2017-09-15T11:57:18.485Z,22.26
2017-09-15T11:59:47.550Z,22.27
2017-09-15T12:02:16.995Z,22.58
2017-09-15T12:04:45.360Z,22.84
2017-09-15T12:07:13.743Z,22.85
2017-09-15T12:09:43.296Z,22.80
2017-09-15T12:12:11.654Z,22.42
2017-09-15T12:14:40.028Z,22.60
2017-09-15T12:17:08.666Z,22.31
2017-09-15T12:19:37.690Z,22.45
2017-09-15T12:22:06.069Z,22.84
2017-09-15T12:24:34.717Z,22.97
2017-09-15T12:27:03.073Z,22.95
2017-09-15T12:29:31.427Z,22.23
2017-09-15T12:32:02.516Z,22.16
2017-09-15T12:34:30.920Z,21.52
2017-09-15T12:36:59.307Z,21.39
2017-09-15T12:39:28.179Z,21.57
2017-09-15T12:41:58.113Z,21.25
2017-09-15T12:44:28.063Z,21.25
2017-09-15T12:46:56.722Z,21.49
2017-09-15T12:49:25.099Z,21.47
2017-09-15T12:51:53.467Z,21.75
2017-09-15T12:54:23.572Z,22.87
2017-09-15T12:56:52.696Z,26.03
2017-09-15T12:59:21.843Z,26.92
2017-09-15T13:01:50.610Z,26.84
2017-09-15T13:04:19.351Z,26.63
2017-09-15T13:06:48.493Z,27.45
2017-09-15T13:09:17.153Z,26.40
2017-09-15T13:11:46.434Z,25.54
2017-09-15T13:14:16.575Z,23.71
2017-09-15T13:16:45.516Z,22.83
2017-09-15T13:19:14.514Z,22.06
2017-09-15T13:21:43.157Z,21.45
2017-09-15T13:24:11.797Z,21.31
2017-09-15T13:26:40.141Z,21.35
2017-09-15T13:29:08.519Z,21.53
2017-09-15T13:31:37.381Z,21.00
2017-09-15T13:34:05.844Z,20.82
2017-09-15T13:36:34.818Z,20.20
2017-09-15T13:39:03.588Z,19.68
2017-09-15T13:41:32.013Z,20.20
2017-09-15T13:44:00.373Z,20.27
2017-09-15T13:46:30.635Z,19.85
2017-09-15T13:48:58.974Z,19.75
2017-09-15T13:51:28.086Z,20.45
2017-09-15T13:53:57.527Z,20.11
2017-09-15T13:56:26.192Z,19.61
2017-09-15T13:58:54.594Z,19.56
2017-09-15T14:01:23.398Z,19.66
2017-09-15T14:03:54.381Z,21.63
2017-09-15T14:06:23.945Z,22.71
2017-09-15T14:08:52.312Z,24.86
2017-09-15T14:11:21.231Z,26.33
2017-09-15T14:13:50.967Z,25.49
2017-09-15T14:16:21.039Z,24.03
2017-09-15T14:18:49.388Z,23.54
2017-09-15T14:21:19.226Z,22.95
2017-09-15T14:23:47.617Z,22.51
2017-09-15T14:26:17.096Z,22.27
2017-09-15T14:28:46.114Z,22.97
2017-09-15T14:31:15.886Z,24.28
2017-09-15T14:33:45.783Z,25.89
2017-09-15T14:36:15.632Z,26.74
2017-09-15T14:38:44.252Z,26.02
2017-09-15T14:41:12.616Z,25.63
2017-09-15T14:43:42.123Z,25.63
2017-09-15T14:46:11.415Z,25.51
2017-09-15T14:48:40.328Z,26.58
2017-09-15T14:51:09.138Z,26.14
2017-09-15T14:53:37.612Z,26.08
2017-09-15T14:56:05.980Z,25.99
2017-09-15T14:58:34.700Z,26.41
2017-09-15T15:01:03.369Z,26.60
2017-09-15T15:03:33.345Z,27.04
2017-09-15T15:06:03.369Z,27.00
2017-09-15T15:08:31.893Z,26.01
2017-09-15T15:11:01.048Z,25.58
2017-09-15T15:13:30.471Z,24.43
2017-09-15T15:15:58.839Z,23.00
2017-09-15T15:18:27.177Z,22.41
2017-09-15T15:20:55.872Z,22.16
2017-09-15T15:23:24.197Z,21.94
2017-09-15T15:25:53.427Z,21.51
2017-09-15T15:28:23.813Z,21.04
2017-09-15T15:30:52.283Z,20.45
2017-09-15T15:33:20.674Z,18.67
2017-09-15T15:35:50.235Z,18.79
2017-09-15T15:38:18.582Z,18.72
2017-09-15T15:40:48.168Z,18.69
2017-09-15T15:43:18.525Z,18.37
2017-09-15T15:45:46.867Z,17.74
2017-09-15T15:48:15.207Z,18.33
2017-09-15T15:50:45.152Z,18.06
2017-09-15T15:53:14.355Z,18.01
2017-09-15T15:55:42.714Z,17.58
2017-09-15T15:58:11.258Z,17.62
2017-09-15T16:00:39.622Z,18.10
2017-09-15T16:03:07.987Z,18.05
2017-09-15T16:05:37.310Z,18.23
2017-09-15T16:08:05.688Z,18.14
2017-09-15T16:10:34.374Z,17.61
2017-09-15T16:13:03.332Z,18.02
2017-09-15T16:15:31.665Z,17.89
2017-09-15T16:18:00.038Z,17.81
2017-09-15T16:20:29.472Z,17.57
2017-09-15T16:22:58.190Z,17.74
2017-09-15T16:25:26.564Z,17.39
2017-09-15T16:27:55.190Z,17.44
2017-09-15T16:30:24.750Z,17.42
2017-09-15T16:32:53.100Z,17.41
2017-09-15T16:35:21.845Z,17.67
2017-09-15T16:37:50.354Z,17.75
2017-09-15T16:40:25.266Z,17.68
2017-09-15T16:42:59.878Z,17.54
2017-09-15T16:45:33.908Z,17.52
2017-09-15T16:48:10.063Z,17.49
2017-09-15T16:50:39.121Z,17.27
2017-09-15T16:53:07.497Z,17.19
2017-09-15T16:55:35.874Z,17.37
2017-09-15T16:58:04.526Z,17.30
2017-09-15T17:00:33.237Z,17.40
2017-09-15T17:03:03.141Z,17.51
2017-09-15T17:05:31.752Z,17.43
2017-09-15T17:08:00.125Z,17.33
2017-09-15T17:10:28.497Z,17.20
2017-09-15T17:12:57.692Z,17.28
2017-09-15T17:15:26.610Z,17.38
2017-09-15T17:17:55.198Z,17.12
2017-09-15T17:20:23.953Z,17.22
2017-09-15T17:22:53.522Z,17.10
2017-09-15T17:25:21.894Z,17.34
2017-09-15T17:27:51.474Z,17.34
2017-09-15T17:30:19.833Z,17.22
2017-09-15T17:32:49.199Z,17.13
2017-09-15T17:35:18.245Z,17.13
2017-09-15T17:37:46.638Z,17.16
2017-09-15T17:40:14.996Z,16.76
2017-09-15T17:42:43.892Z,16.62
2017-09-15T17:45:13.810Z,16.80
2017-09-15T17:47:42.817Z,16.83
2017-09-15T17:50:12.268Z,16.85
2017-09-15T17:52:42.314Z,16.82
2017-09-15T17:55:10.707Z,16.82
2017-09-15T17:57:39.820Z,16.92
2017-09-15T18:00:09.087Z,16.85
2017-09-15T18:02:37.775Z,16.67
2017-09-15T18:05:06.994Z,16.60
2017-09-15T18:07:36.317Z,16.62
2017-09-15T18:10:05.468Z,16.52
2017-09-15T18:12:34.910Z,16.40
2017-09-15T18:15:03.291Z,16.47
2017-09-15T18:17:31.655Z,16.51
2017-09-15T18:20:01.278Z,16.20
2017-09-15T18:22:29.659Z,16.22
2017-09-15T18:24:58.087Z,16.08
2017-09-15T18:27:27.503Z,16.09
2017-09-15T18:29:55.870Z,16.01
2017-09-15T18:32:24.986Z,16.02
2017-09-15T18:34:54.466Z,16.09
2017-09-15T18:37:23.691Z,15.97
2017-09-15T18:39:52.083Z,15.73
2017-09-15T18:42:21.113Z,15.84
2017-09-15T18:44:49.469Z,15.93
2017-09-15T18:47:17.811Z,15.68
2017-09-15T18:49:46.454Z,15.70
2017-09-15T18:52:14.874Z,15.79
2017-09-15T18:54:43.326Z,15.68
2017-09-15T18:57:11.942Z,15.64
2017-09-15T18:59:40.346Z,15.78
2017-09-15T19:02:10.017Z,15.80
2017-09-15T19:04:39.759Z,15.66
2017-09-15T19:07:08.112Z,15.53
2017-09-15T19:09:36.484Z,15.59
2017-09-15T19:12:06.142Z,15.51
2017-09-15T19:14:34.509Z,15.43
2017-09-15T19:17:02.899Z,15.59
2017-09-15T19:19:34.438Z,15.46
2017-09-15T19:22:03.502Z,15.40
2017-09-15T19:24:34.348Z,15.40
2017-09-15T19:27:03.999Z,15.32
2017-09-15T19:29:32.381Z,15.14
2017-09-15T19:32:00.775Z,15.16
2017-09-15T19:34:29.484Z,15.18
2017-09-15T19:36:58.762Z,15.03
2017-09-15T19:39:27.450Z,15.05
2017-09-15T19:41:56.137Z,14.91
2017-09-15T19:44:25.486Z,14.93
2017-09-15T19:46:53.894Z,14.92
2017-09-15T19:49:22.709Z,14.66
2017-09-15T19:51:51.099Z,14.71
2017-09-15T19:56:53.035Z,14.64
2017-09-15T19:59:21.438Z,14.54
2017-09-15T20:01:50.621Z,14.51
2017-09-15T20:04:19.544Z,14.50
2017-09-15T20:06:48.890Z,14.53
2017-09-15T20:09:17.280Z,14.53
2017-09-15T20:11:46.473Z,14.56
2017-09-15T20:14:14.834Z,14.62
2017-09-15T20:16:43.211Z,14.56
2017-09-15T20:19:12.620Z,14.64
2017-09-15T20:21:42.000Z,14.57
2017-09-15T20:24:10.359Z,14.60
2017-09-15T20:26:39.007Z,14.60
2017-09-15T20:29:07.401Z,14.70
2017-09-15T20:31:36.058Z,14.69
2017-09-15T20:34:05.462Z,14.69
2017-09-15T20:36:34.266Z,14.67
2017-09-15T20:39:02.619Z,14.55
2017-09-15T20:41:31.800Z,14.28
2017-09-15T20:44:02.601Z,14.29
2017-09-15T20:46:31.583Z,14.45
2017-09-15T20:49:01.084Z,14.54
2017-09-15T20:51:29.458Z,14.49
2017-09-15T20:53:57.831Z,14.32
2017-09-15T20:56:26.548Z,14.51
2017-09-15T20:58:54.936Z,14.62
2017-09-15T21:01:24.136Z,14.50
2017-09-15T21:03:52.876Z,14.48
2017-09-15T21:06:21.268Z,14.27
2017-09-15T21:08:50.038Z,14.65
2017-09-15T21:11:18.701Z,14.62
2017-09-15T21:13:47.471Z,14.59
2017-09-15T21:16:16.260Z,14.38
2017-09-15T21:18:45.512Z,14.34
2017-09-15T21:21:14.674Z,14.54
2017-09-15T21:23:43.024Z,14.50
2017-09-15T21:26:11.938Z,14.39
2017-09-15T21:28:40.295Z,14.58
2017-09-15T21:31:08.681Z,14.56
2017-09-15T21:33:37.344Z,14.46
2017-09-15T21:36:05.723Z,14.42
2017-09-15T21:38:34.889Z,14.53
2017-09-15T21:41:05.152Z,14.28
2017-09-15T21:43:33.603Z,14.26
2017-09-15T21:46:01.985Z,14.45
2017-09-15T21:48:31.469Z,14.38
2017-09-15T21:51:00.609Z,14.39
2017-09-15T21:53:29.710Z,14.41
2017-09-15T21:55:58.674Z,14.37
2017-09-15T21:58:27.077Z,14.08
2017-09-15T22:00:55.450Z,14.01
2017-09-15T22:03:24.245Z,14.05
2017-09-15T22:05:52.595Z,14.00
2017-09-15T22:08:20.974Z,13.99
2017-09-15T22:10:50.482Z,14.01
2017-09-15T22:13:19.142Z,14.02
2017-09-15T22:15:48.290Z,13.98
2017-09-15T22:18:17.074Z,14.11
2017-09-15T22:20:45.447Z,14.20
2017-09-15T22:23:13.889Z,14.22
2017-09-15T22:25:43.651Z,14.20
2017-09-15T22:28:12.746Z,14.06
2017-09-15T22:30:41.239Z,14.03
2017-09-15T22:33:10.767Z,14.09
2017-09-15T22:35:39.900Z,13.92
2017-09-15T22:38:08.393Z,13.78
2017-09-15T22:40:38.088Z,13.91
2017-09-15T22:43:07.349Z,13.88
2017-09-15T22:45:36.891Z,13.66
2017-09-15T22:48:06.992Z,13.72
2017-09-15T22:50:35.399Z,13.75
2017-09-15T22:53:05.418Z,13.53
2017-09-15T22:55:34.229Z,13.52
2017-09-15T22:58:02.965Z,13.38
2017-09-15T23:00:31.463Z,13.19
2017-09-15T23:03:01.462Z,13.16
2017-09-15T23:05:29.869Z,13.22
2017-09-15T23:07:58.440Z,13.43
2017-09-15T23:10:28.392Z,13.46
2017-09-15T23:12:56.859Z,13.29
2017-09-15T23:15:26.486Z,13.44
2017-09-15T23:17:55.990Z,13.61
2017-09-15T23:20:24.460Z,13.68
2017-09-15T23:22:52.856Z,13.58
2017-09-15T23:25:22.318Z,13.60
2017-09-15T23:27:50.708Z,13.51
2017-09-15T23:30:19.783Z,13.51
2017-09-15T23:32:49.262Z,13.28
2017-09-15T23:35:17.641Z,13.37
2017-09-15T23:37:46.075Z,13.54
2017-09-15T23:40:14.914Z,13.64
2017-09-15T23:42:43.323Z,13.58
2017-09-15T23:45:12.623Z,13.71
2017-09-15T23:47:41.842Z,13.40
2017-09-15T23:50:10.281Z,13.52
2017-09-15T23:52:38.782Z,13.62
2017-09-15T23:55:08.839Z,13.69
2017-09-15T23:57:37.321Z,13.67
